SPTU

Padre Aldamiz International Airport

Puerto Maldonado, Peru
SPTU 141700Z 1418/1518 33006KT 9999 SCT020 BKN080 TX34/1419Z TN23/1511Z TEMPO 1515/1518 BKN012 FEW015TCU
Issued Valid From Valid To
Dec-14 @ 17:00 UTC
(5 hours ago)
Dec-14 @ 18:00 UTC
(4 hours ago)
Dec-15 @ 18:00 UTC
(in 20 hours)
Dec-14 @ 18:00 to Dec-15 @ 18:00
SPTU 141700Z 1418/1518 33006KT 9999 SCT020 BKN080 TX34/1419Z TN23/1511Z
Wind Visibility Clouds
330° at 6 knots 10,000+ meters
  • Scattered at 2,000' AGL
  • Broken at 8,000' AGL
Temporary Dec-15 @ 15:00 to Dec-15 @ 18:00
TEMPO 1515/1518 BKN012 FEW015TCU
Clouds
  • Broken at 1,200' AGL
  • Few at 1,500' AGL
SPTU 141700Z 1418/1518 33006KT 9999 SCT020 BKN080 TX34/1419Z TN23/1511Z TEMPO 1515/1518 BKN012 FEW015TCU
Issued Dec-14 @ 17:00 UTC
(5 hours ago)
Valid From Dec-14 @ 18:00 UTC
(4 hours ago)
Valid To Dec-15 @ 18:00 UTC
(in 20 hours)
Dec-14 @ 18:00 - Dec-15 @ 18:00
Wind Visibility
330° at 6 knots 10,000+ meters
Clouds
  • Scattered at 2,000' AGL
  • Broken at 8,000' AGL
Temporary Dec-15 @ 15:00 - Dec-15 @ 18:00
Clouds
  • Broken at 1,200' AGL
  • Few at 1,500' AGL